sensor_id;sensor_type;location;lat;lon;timestamp;temperature;humidity
2062;DHT22;11070;51.336;12.340;2023-06-10T00:01:29;19.20;99.90
2062;DHT22;11070;51.336;12.340;2023-06-10T00:03:55;19.10;99.90
2062;DHT22;11070;51.336;12.340;2023-06-10T00:06:21;19.10;99.90
2062;DHT22;11070;51.336;12.340;2023-06-10T00:08:50;19.00;99.90
2062;DHT22;11070;51.336;12.340;2023-06-10T00:11:16;19.00;99.90
2062;DHT22;11070;51.336;12.340;2023-06-10T00:13:41;19.00;99.90
2062;DHT22;11070;51.336;12.340;2023-06-10T00:16:07;18.90;99.90
2062;DHT22;11070;51.336;12.340;2023-06-10T00:18:32;18.90;99.90
2062;DHT22;11070;51.336;12.340;2023-06-10T00:20:58;18.80;99.90
2062;DHT22;11070;51.336;12.340;2023-06-10T00:23:29;18.70;99.90
2062;DHT22;11070;51.336;12.340;2023-06-10T00:25:58;18.70;99.90
2062;DHT22;11070;51.336;12.340;2023-06-10T00:28:25;18.70;99.90
2062;DHT22;11070;51.336;12.340;2023-06-10T00:30:51;18.60;99.90
2062;DHT22;11070;51.336;12.340;2023-06-10T00:33:16;18.60;99.90
2062;DHT22;11070;51.336;12.340;2023-06-10T00:35:42;18.50;99.90
2062;DHT22;11070;51.336;12.340;2023-06-10T00:38:08;18.40;99.90
2062;DHT22;11070;51.336;12.340;2023-06-10T00:40:39;18.40;99.90
2062;DHT22;11070;51.336;12.340;2023-06-10T00:43:06;18.30;99.90
2062;DHT22;11070;51.336;12.340;2023-06-10T00:45:32;18.20;99.90
2062;DHT22;11070;51.336;12.340;2023-06-10T00:47:59;18.20;99.90
2062;DHT22;11070;51.336;12.340;2023-06-10T00:50:25;18.10;99.90
2062;DHT22;11070;51.336;12.340;2023-06-10T00:52:51;18.00;99.90
2062;DHT22;11070;51.336;12.340;2023-06-10T00:55:17;17.90;99.90
2062;DHT22;11070;51.336;12.340;2023-06-10T00:57:45;17.90;99.90
2062;DHT22;11070;51.336;12.340;2023-06-10T01:00:12;17.80;99.90
2062;DHT22;11070;51.336;12.340;2023-06-10T01:02:38;17.90;99.90
2062;DHT22;11070;51.336;12.340;2023-06-10T01:05:04;17.80;99.90
2062;DHT22;11070;51.336;12.340;2023-06-10T01:12:38;17.60;99.90
2062;DHT22;11070;51.336;12.340;2023-06-10T01:15:06;17.60;99.90
2062;DHT22;11070;51.336;12.340;2023-06-10T01:17:33;17.60;99.90
2062;DHT22;11070;51.336;12.340;2023-06-10T01:19:59;17.50;99.90
2062;DHT22;11070;51.336;12.340;2023-06-10T01:22:27;17.50;99.90
2062;DHT22;11070;51.336;12.340;2023-06-10T01:25:02;17.40;99.90
2062;DHT22;11070;51.336;12.340;2023-06-10T01:27:32;17.40;99.90
2062;DHT22;11070;51.336;12.340;2023-06-10T01:30:14;17.40;99.90
2062;DHT22;11070;51.336;12.340;2023-06-10T01:32:47;17.30;99.90
2062;DHT22;11070;51.336;12.340;2023-06-10T01:35:13;17.20;99.90
2062;DHT22;11070;51.336;12.340;2023-06-10T01:37:40;17.10;99.90
2062;DHT22;11070;51.336;12.340;2023-06-10T01:40:09;17.00;99.90
2062;DHT22;11070;51.336;12.340;2023-06-10T01:42:35;17.00;99.90
2062;DHT22;11070;51.336;12.340;2023-06-10T01:45:01;17.00;99.90
2062;DHT22;11070;51.336;12.340;2023-06-10T01:47:27;17.00;99.90
2062;DHT22;11070;51.336;12.340;2023-06-10T01:49:53;16.90;99.90
2062;DHT22;11070;51.336;12.340;2023-06-10T01:52:18;16.90;99.90
2062;DHT22;11070;51.336;12.340;2023-06-10T01:54:44;16.80;99.90
2062;DHT22;11070;51.336;12.340;2023-06-10T01:57:10;16.80;99.90
2062;DHT22;11070;51.336;12.340;2023-06-10T01:59:36;16.80;99.90
2062;DHT22;11070;51.336;12.340;2023-06-10T02:02:03;16.80;99.90
2062;DHT22;11070;51.336;12.340;2023-06-10T02:04:29;16.80;99.90
2062;DHT22;11070;51.336;12.340;2023-06-10T02:06:55;16.70;99.90
2062;DHT22;11070;51.336;12.340;2023-06-10T02:09:21;16.60;99.90
2062;DHT22;11070;51.336;12.340;2023-06-10T02:11:48;16.60;99.90
2062;DHT22;11070;51.336;12.340;2023-06-10T02:14:14;16.60;99.90
2062;DHT22;11070;51.336;12.340;2023-06-10T02:16:40;16.50;99.90
2062;DHT22;11070;51.336;12.340;2023-06-10T02:19:06;16.60;99.90
2062;DHT22;11070;51.336;12.340;2023-06-10T02:21:32;16.60;99.90
2062;DHT22;11070;51.336;12.340;2023-06-10T02:24:00;16.60;99.90
2062;DHT22;11070;51.336;12.340;2023-06-10T02:26:26;16.60;99.90
2062;DHT22;11070;51.336;12.340;2023-06-10T02:28:52;16.60;99.90
2062;DHT22;11070;51.336;12.340;2023-06-10T02:31:17;16.50;99.90
2062;DHT22;11070;51.336;12.340;2023-06-10T02:33:44;16.50;99.90
2062;DHT22;11070;51.336;12.340;2023-06-10T02:36:10;16.50;99.90
2062;DHT22;11070;51.336;12.340;2023-06-10T02:38:41;16.40;99.90
2062;DHT22;11070;51.336;12.340;2023-06-10T02:41:07;16.40;99.90
2062;DHT22;11070;51.336;12.340;2023-06-10T02:43:33;16.40;99.90
2062;DHT22;11070;51.336;12.340;2023-06-10T02:45:59;16.30;99.90
2062;DHT22;11070;51.336;12.340;2023-06-10T02:48:24;16.30;99.90
2062;DHT22;11070;51.336;12.340;2023-06-10T02:50:50;16.20;99.90
2062;DHT22;11070;51.336;12.340;2023-06-10T02:53:16;16.20;99.90
2062;DHT22;11070;51.336;12.340;2023-06-10T02:55:42;16.20;99.90
2062;DHT22;11070;51.336;12.340;2023-06-10T02:58:08;16.10;99.90
2062;DHT22;11070;51.336;12.340;2023-06-10T03:00:34;16.00;99.90
2062;DHT22;11070;51.336;12.340;2023-06-10T03:03:01;16.00;99.90
2062;DHT22;11070;51.336;12.340;2023-06-10T03:05:29;16.00;99.90
2062;DHT22;11070;51.336;12.340;2023-06-10T03:07:55;16.00;99.90
2062;DHT22;11070;51.336;12.340;2023-06-10T03:10:21;15.90;99.90
2062;DHT22;11070;51.336;12.340;2023-06-10T03:12:46;15.80;99.90
2062;DHT22;11070;51.336;12.340;2023-06-10T03:15:12;15.80;99.90
2062;DHT22;11070;51.336;12.340;2023-06-10T03:17:38;15.80;99.90
2062;DHT22;11070;51.336;12.340;2023-06-10T03:20:04;15.80;99.90
2062;DHT22;11070;51.336;12.340;2023-06-10T03:22:36;15.70;99.90
2062;DHT22;11070;51.336;12.340;2023-06-10T03:25:04;15.80;99.90
2062;DHT22;11070;51.336;12.340;2023-06-10T03:27:30;15.80;99.90
2062;DHT22;11070;51.336;12.340;2023-06-10T03:29:56;15.80;99.90
2062;DHT22;11070;51.336;12.340;2023-06-10T03:32:22;15.70;99.90
2062;DHT22;11070;51.336;12.340;2023-06-10T03:34:49;15.80;99.90
2062;DHT22;11070;51.336;12.340;2023-06-10T03:37:15;15.80;99.90
2062;DHT22;11070;51.336;12.340;2023-06-10T03:39:40;15.80;99.90
2062;DHT22;11070;51.336;12.340;2023-06-10T03:42:06;15.70;99.90
2062;DHT22;11070;51.336;12.340;2023-06-10T03:44:32;15.80;99.90
2062;DHT22;11070;51.336;12.340;2023-06-10T03:46:57;15.80;99.90
2062;DHT22;11070;51.336;12.340;2023-06-10T03:49:25;15.80;99.90
2062;DHT22;11070;51.336;12.340;2023-06-10T03:51:52;15.70;99.90
2062;DHT22;11070;51.336;12.340;2023-06-10T03:54:18;15.80;99.90
2062;DHT22;11070;51.336;12.340;2023-06-10T03:56:43;15.80;99.90
2062;DHT22;11070;51.336;12.340;2023-06-10T03:59:09;15.90;99.90
2062;DHT22;11070;51.336;12.340;2023-06-10T04:01:35;15.90;99.90
2062;DHT22;11070;51.336;12.340;2023-06-10T04:04:02;16.00;99.90
2062;DHT22;11070;51.336;12.340;2023-06-10T04:06:28;16.00;99.90
2062;DHT22;11070;51.336;12.340;2023-06-10T04:08:54;15.90;99.90
2062;DHT22;11070;51.336;12.340;2023-06-10T04:11:23;15.90;99.90
2062;DHT22;11070;51.336;12.340;2023-06-10T04:13:49;16.00;99.90
2062;DHT22;11070;51.336;12.340;2023-06-10T04:16:15;16.10;99.90
2062;DHT22;11070;51.336;12.340;2023-06-10T04:18:41;16.10;99.90
2062;DHT22;11070;51.336;12.340;2023-06-10T04:21:07;16.10;99.90
2062;DHT22;11070;51.336;12.340;2023-06-10T04:23:35;16.10;99.90
2062;DHT22;11070;51.336;12.340;2023-06-10T04:26:02;16.10;99.90
2062;DHT22;11070;51.336;12.340;2023-06-10T04:28:27;16.00;99.90
2062;DHT22;11070;51.336;12.340;2023-06-10T04:30:53;16.10;99.90
2062;DHT22;11070;51.336;12.340;2023-06-10T04:33:19;16.10;99.90
2062;DHT22;11070;51.336;12.340;2023-06-10T04:35:45;16.10;99.90
2062;DHT22;11070;51.336;12.340;2023-06-10T04:38:13;16.20;99.90
2062;DHT22;11070;51.336;12.340;2023-06-10T04:40:39;16.30;99.90
2062;DHT22;11070;51.336;12.340;2023-06-10T04:43:05;16.40;99.90
2062;DHT22;11070;51.336;12.340;2023-06-10T04:45:31;16.50;99.90
2062;DHT22;11070;51.336;12.340;2023-06-10T04:47:56;16.50;99.90
2062;DHT22;11070;51.336;12.340;2023-06-10T04:50:23;16.60;99.90
2062;DHT22;11070;51.336;12.340;2023-06-10T04:52:49;16.60;99.90
2062;DHT22;11070;51.336;12.340;2023-06-10T04:55:15;16.70;99.90
2062;DHT22;11070;51.336;12.340;2023-06-10T04:57:41;16.70;99.90
2062;DHT22;11070;51.336;12.340;2023-06-10T05:00:07;16.70;99.90
2062;DHT22;11070;51.336;12.340;2023-06-10T05:02:34;16.80;99.90
2062;DHT22;11070;51.336;12.340;2023-06-10T05:04:59;16.80;99.90
2062;DHT22;11070;51.336;12.340;2023-06-10T05:07:25;16.90;99.90
2062;DHT22;11070;51.336;12.340;2023-06-10T05:09:51;16.90;99.90
2062;DHT22;11070;51.336;12.340;2023-06-10T05:12:17;16.90;99.90
2062;DHT22;11070;51.336;12.340;2023-06-10T05:14:43;17.10;99.90
2062;DHT22;11070;51.336;12.340;2023-06-10T05:17:10;17.20;99.90
2062;DHT22;11070;51.336;12.340;2023-06-10T05:19:35;17.20;99.90
2062;DHT22;11070;51.336;12.340;2023-06-10T05:22:03;17.20;99.90
2062;DHT22;11070;51.336;12.340;2023-06-10T05:24:28;17.30;99.90
2062;DHT22;11070;51.336;12.340;2023-06-10T05:26:54;17.30;99.90
2062;DHT22;11070;51.336;12.340;2023-06-10T05:29:20;17.50;99.90
2062;DHT22;11070;51.336;12.340;2023-06-10T05:31:45;17.60;99.90
2062;DHT22;11070;51.336;12.340;2023-06-10T05:34:11;17.60;99.90
2062;DHT22;11070;51.336;12.340;2023-06-10T05:36:37;17.90;99.90
2062;DHT22;11070;51.336;12.340;2023-06-10T05:39:03;17.90;99.90
2062;DHT22;11070;51.336;12.340;2023-06-10T05:41:28;17.90;99.90
2062;DHT22;11070;51.336;12.340;2023-06-10T05:43:54;18.00;99.90
2062;DHT22;11070;51.336;12.340;2023-06-10T05:46:20;18.00;99.90
2062;DHT22;11070;51.336;12.340;2023-06-10T05:48:46;18.10;99.90
2062;DHT22;11070;51.336;12.340;2023-06-10T05:51:11;18.10;99.90
2062;DHT22;11070;51.336;12.340;2023-06-10T05:53:37;18.20;99.90
2062;DHT22;11070;51.336;12.340;2023-06-10T05:56:04;18.20;99.90
2062;DHT22;11070;51.336;12.340;2023-06-10T05:58:30;18.20;99.90
2062;DHT22;11070;51.336;12.340;2023-06-10T06:00:55;18.40;99.90
2062;DHT22;11070;51.336;12.340;2023-06-10T06:03:21;18.60;99.90
2062;DHT22;11070;51.336;12.340;2023-06-10T06:05:47;18.60;99.90
2062;DHT22;11070;51.336;12.340;2023-06-10T06:08:12;18.70;99.90
2062;DHT22;11070;51.336;12.340;2023-06-10T06:10:46;18.90;99.90
2062;DHT22;11070;51.336;12.340;2023-06-10T06:13:13;19.00;99.90
2062;DHT22;11070;51.336;12.340;2023-06-10T06:15:39;19.00;99.90
2062;DHT22;11070;51.336;12.340;2023-06-10T06:18:04;19.10;99.90
2062;DHT22;11070;51.336;12.340;2023-06-10T06:20:30;19.20;99.90
2062;DHT22;11070;51.336;12.340;2023-06-10T06:22:56;19.30;99.90
2062;DHT22;11070;51.336;12.340;2023-06-10T06:25:21;19.30;99.90
2062;DHT22;11070;51.336;12.340;2023-06-10T06:27:47;19.20;99.90
2062;DHT22;11070;51.336;12.340;2023-06-10T06:30:13;19.30;99.90
2062;DHT22;11070;51.336;12.340;2023-06-10T06:32:42;19.40;99.90
2062;DHT22;11070;51.336;12.340;2023-06-10T06:35:08;19.50;99.90
2062;DHT22;11070;51.336;12.340;2023-06-10T06:37:33;19.60;99.90
2062;DHT22;11070;51.336;12.340;2023-06-10T06:40:00;19.70;99.90
2062;DHT22;11070;51.336;12.340;2023-06-10T06:42:25;19.90;99.90
2062;DHT22;11070;51.336;12.340;2023-06-10T06:44:51;20.10;99.90
2062;DHT22;11070;51.336;12.340;2023-06-10T06:47:17;20.30;99.90
2062;DHT22;11070;51.336;12.340;2023-06-10T06:49:46;20.50;99.90
2062;DHT22;11070;51.336;12.340;2023-06-10T06:52:12;20.60;99.90
2062;DHT22;11070;51.336;12.340;2023-06-10T06:54:38;20.60;99.90
2062;DHT22;11070;51.336;12.340;2023-06-10T06:57:04;20.70;99.90
2062;DHT22;11070;51.336;12.340;2023-06-10T06:59:31;20.60;99.90
2062;DHT22;11070;51.336;12.340;2023-06-10T07:01:56;21.00;99.90
2062;DHT22;11070;51.336;12.340;2023-06-10T07:04:22;21.20;99.90
2062;DHT22;11070;51.336;12.340;2023-06-10T07:06:48;21.40;99.90
2062;DHT22;11070;51.336;12.340;2023-06-10T07:09:14;21.60;99.90
2062;DHT22;11070;51.336;12.340;2023-06-10T07:11:40;21.70;99.90
2062;DHT22;11070;51.336;12.340;2023-06-10T07:14:06;21.60;99.90
2062;DHT22;11070;51.336;12.340;2023-06-10T07:16:32;21.50;99.90
2062;DHT22;11070;51.336;12.340;2023-06-10T07:18:58;21.50;99.90
2062;DHT22;11070;51.336;12.340;2023-06-10T07:21:23;21.50;99.90
2062;DHT22;11070;51.336;12.340;2023-06-10T07:23:49;21.80;99.90
2062;DHT22;11070;51.336;12.340;2023-06-10T07:26:17;22.10;99.90
2062;DHT22;11070;51.336;12.340;2023-06-10T07:28:43;22.30;99.90
2062;DHT22;11070;51.336;12.340;2023-06-10T07:31:09;22.60;99.90
2062;DHT22;11070;51.336;12.340;2023-06-10T07:33:36;22.80;99.90
2062;DHT22;11070;51.336;12.340;2023-06-10T07:36:03;22.90;99.90
2062;DHT22;11070;51.336;12.340;2023-06-10T07:38:29;23.10;99.90
2062;DHT22;11070;51.336;12.340;2023-06-10T07:40:55;23.40;99.90
2062;DHT22;11070;51.336;12.340;2023-06-10T07:43:20;23.70;99.90
2062;DHT22;11070;51.336;12.340;2023-06-10T07:45:46;23.70;99.90
2062;DHT22;11070;51.336;12.340;2023-06-10T07:48:11;23.70;99.90
2062;DHT22;11070;51.336;12.340;2023-06-10T07:50:37;23.80;99.90
2062;DHT22;11070;51.336;12.340;2023-06-10T07:53:03;24.20;99.90
2062;DHT22;11070;51.336;12.340;2023-06-10T07:55:29;24.20;99.90
2062;DHT22;11070;51.336;12.340;2023-06-10T07:57:55;24.20;99.90
2062;DHT22;11070;51.336;12.340;2023-06-10T08:00:21;24.30;99.90
2062;DHT22;11070;51.336;12.340;2023-06-10T08:02:47;24.40;99.90
2062;DHT22;11070;51.336;12.340;2023-06-10T08:05:13;24.60;99.90
2062;DHT22;11070;51.336;12.340;2023-06-10T08:07:42;24.50;99.90
2062;DHT22;11070;51.336;12.340;2023-06-10T08:10:08;24.40;99.90
2062;DHT22;11070;51.336;12.340;2023-06-10T08:12:34;24.30;99.90
2062;DHT22;11070;51.336;12.340;2023-06-10T08:15:00;24.30;99.90
2062;DHT22;11070;51.336;12.340;2023-06-10T08:17:26;24.40;99.90
2062;DHT22;11070;51.336;12.340;2023-06-10T08:19:52;24.90;99.90
2062;DHT22;11070;51.336;12.340;2023-06-10T08:22:17;25.30;99.90
2062;DHT22;11070;51.336;12.340;2023-06-10T08:24:43;25.70;99.90
2062;DHT22;11070;51.336;12.340;2023-06-10T08:27:09;26.00;99.90
2062;DHT22;11070;51.336;12.340;2023-06-10T08:29:35;26.10;99.90
2062;DHT22;11070;51.336;12.340;2023-06-10T08:32:01;26.20;99.90
2062;DHT22;11070;51.336;12.340;2023-06-10T08:34:27;26.40;99.90
2062;DHT22;11070;51.336;12.340;2023-06-10T08:36:53;26.40;99.90
2062;DHT22;11070;51.336;12.340;2023-06-10T08:39:21;26.70;99.90
2062;DHT22;11070;51.336;12.340;2023-06-10T08:44:46;27.20;99.90
2062;DHT22;11070;51.336;12.340;2023-06-10T08:47:16;27.20;99.90
2062;DHT22;11070;51.336;12.340;2023-06-10T08:49:44;27.30;99.90
2062;DHT22;11070;51.336;12.340;2023-06-10T08:52:16;27.40;99.90
2062;DHT22;11070;51.336;12.340;2023-06-10T08:54:59;27.40;99.90
2062;DHT22;11070;51.336;12.340;2023-06-10T08:57:26;27.30;99.90
2062;DHT22;11070;51.336;12.340;2023-06-10T08:59:57;27.60;99.90
2062;DHT22;11070;51.336;12.340;2023-06-10T09:02:24;28.00;98.80
2062;DHT22;11070;51.336;12.340;2023-06-10T09:04:50;27.90;97.70
2062;DHT22;11070;51.336;12.340;2023-06-10T09:07:17;27.60;98.50
2062;DHT22;11070;51.336;12.340;2023-06-10T09:09:44;27.80;98.00
2062;DHT22;11070;51.336;12.340;2023-06-10T09:12:10;28.00;97.30
2062;DHT22;11070;51.336;12.340;2023-06-10T09:14:36;28.40;95.70
2062;DHT22;11070;51.336;12.340;2023-06-10T09:17:03;28.70;94.40
2062;DHT22;11070;51.336;12.340;2023-06-10T09:19:29;29.00;93.60
2062;DHT22;11070;51.336;12.340;2023-06-10T09:21:55;29.20;93.00
2062;DHT22;11070;51.336;12.340;2023-06-10T09:24:22;29.50;92.00
2062;DHT22;11070;51.336;12.340;2023-06-10T09:26:49;29.80;90.90
2062;DHT22;11070;51.336;12.340;2023-06-10T09:29:16;30.00;89.60
2062;DHT22;11070;51.336;12.340;2023-06-10T09:31:43;30.00;89.60
2062;DHT22;11070;51.336;12.340;2023-06-10T09:34:13;30.40;85.10
2062;DHT22;11070;51.336;12.340;2023-06-10T09:36:40;30.50;83.70
2062;DHT22;11070;51.336;12.340;2023-06-10T09:39:14;30.60;81.80
2062;DHT22;11070;51.336;12.340;2023-06-10T09:41:41;30.60;82.10
2062;DHT22;11070;51.336;12.340;2023-06-10T09:44:14;30.60;81.00
2062;DHT22;11070;51.336;12.340;2023-06-10T09:46:41;30.70;79.90
2062;DHT22;11070;51.336;12.340;2023-06-10T09:49:07;30.80;79.50
2062;DHT22;11070;51.336;12.340;2023-06-10T09:51:32;30.80;77.90
2062;DHT22;11070;51.336;12.340;2023-06-10T09:53:59;30.80;79.00
2062;DHT22;11070;51.336;12.340;2023-06-10T09:56:34;31.00;76.60
2062;DHT22;11070;51.336;12.340;2023-06-10T09:59:01;31.30;75.80
2062;DHT22;11070;51.336;12.340;2023-06-10T10:01:26;31.20;75.00
2062;DHT22;11070;51.336;12.340;2023-06-10T10:03:52;31.40;73.90
2062;DHT22;11070;51.336;12.340;2023-06-10T10:06:19;31.40;73.60
2062;DHT22;11070;51.336;12.340;2023-06-10T10:08:49;31.60;72.10
2062;DHT22;11070;51.336;12.340;2023-06-10T10:11:20;31.50;71.60
2062;DHT22;11070;51.336;12.340;2023-06-10T10:13:50;31.70;70.70
2062;DHT22;11070;51.336;12.340;2023-06-10T10:16:32;31.60;69.30
2062;DHT22;11070;51.336;12.340;2023-06-10T10:19:07;31.70;69.90
2062;DHT22;11070;51.336;12.340;2023-06-10T10:21:37;31.50;70.50
2062;DHT22;11070;51.336;12.340;2023-06-10T10:24:16;31.20;71.80
2062;DHT22;11070;51.336;12.340;2023-06-10T10:26:43;31.30;70.80
2062;DHT22;11070;51.336;12.340;2023-06-10T10:29:22;31.60;69.80
2062;DHT22;11070;51.336;12.340;2023-06-10T10:31:52;31.80;68.10
2062;DHT22;11070;51.336;12.340;2023-06-10T10:34:26;31.90;67.10
2062;DHT22;11070;51.336;12.340;2023-06-10T10:36:55;31.90;67.60
2062;DHT22;11070;51.336;12.340;2023-06-10T10:39:22;31.90;67.00
2062;DHT22;11070;51.336;12.340;2023-06-10T10:41:48;32.10;66.20
2062;DHT22;11070;51.336;12.340;2023-06-10T10:44:15;32.20;65.20
2062;DHT22;11070;51.336;12.340;2023-06-10T10:46:48;32.30;65.10
2062;DHT22;11070;51.336;12.340;2023-06-10T10:49:15;32.40;64.40
2062;DHT22;11070;51.336;12.340;2023-06-10T10:51:57;32.40;63.40
2062;DHT22;11070;51.336;12.340;2023-06-10T10:54:33;32.60;63.20
2062;DHT22;11070;51.336;12.340;2023-06-10T10:57:22;32.80;62.30
2062;DHT22;11070;51.336;12.340;2023-06-10T11:05:07;33.00;59.90
2062;DHT22;11070;51.336;12.340;2023-06-10T11:07:34;33.00;60.70
2062;DHT22;11070;51.336;12.340;2023-06-10T11:12:40;33.00;59.10
2062;DHT22;11070;51.336;12.340;2023-06-10T11:15:06;32.70;59.10
2062;DHT22;11070;51.336;12.340;2023-06-10T11:17:31;32.60;59.30
2062;DHT22;11070;51.336;12.340;2023-06-10T11:19:58;32.30;57.80
2062;DHT22;11070;51.336;12.340;2023-06-10T11:22:24;32.20;57.60
2062;DHT22;11070;51.336;12.340;2023-06-10T11:24:53;32.00;58.40
2062;DHT22;11070;51.336;12.340;2023-06-10T11:27:20;32.10;59.70
2062;DHT22;11070;51.336;12.340;2023-06-10T11:32:22;32.80;56.30
2062;DHT22;11070;51.336;12.340;2023-06-10T11:34:54;32.00;56.80
2062;DHT22;11070;51.336;12.340;2023-06-10T11:37:21;31.80;57.50
2062;DHT22;11070;51.336;12.340;2023-06-10T11:39:51;31.70;57.30
2062;DHT22;11070;51.336;12.340;2023-06-10T11:42:17;32.00;57.50
2062;DHT22;11070;51.336;12.340;2023-06-10T11:44:53;32.10;57.90
2062;DHT22;11070;51.336;12.340;2023-06-10T11:47:20;32.00;58.60
2062;DHT22;11070;51.336;12.340;2023-06-10T11:49:56;32.60;58.10
2062;DHT22;11070;51.336;12.340;2023-06-10T11:52:30;33.20;56.70
2062;DHT22;11070;51.336;12.340;2023-06-10T11:54:59;33.00;56.70
2062;DHT22;11070;51.336;12.340;2023-06-10T11:57:25;32.60;57.10
2062;DHT22;11070;51.336;12.340;2023-06-10T11:59:51;32.50;57.80
2062;DHT22;11070;51.336;12.340;2023-06-10T12:02:17;32.70;57.20
2062;DHT22;11070;51.336;12.340;2023-06-10T12:04:44;32.30;56.80
2062;DHT22;11070;51.336;12.340;2023-06-10T12:07:17;32.30;56.40
2062;DHT22;11070;51.336;12.340;2023-06-10T12:09:44;32.80;55.70
2062;DHT22;11070;51.336;12.340;2023-06-10T12:12:10;33.20;54.90
2062;DHT22;11070;51.336;12.340;2023-06-10T12:14:57;33.60;55.00
2062;DHT22;11070;51.336;12.340;2023-06-10T12:20:08;34.20;53.80
2062;DHT22;11070;51.336;12.340;2023-06-10T12:22:41;34.40;51.20
2062;DHT22;11070;51.336;12.340;2023-06-10T12:25:09;34.30;51.80
2062;DHT22;11070;51.336;12.340;2023-06-10T12:27:35;34.10;51.00
2062;DHT22;11070;51.336;12.340;2023-06-10T12:30:04;33.60;52.80
2062;DHT22;11070;51.336;12.340;2023-06-10T12:32:42;33.10;53.80
2062;DHT22;11070;51.336;12.340;2023-06-10T12:35:09;32.70;54.30
2062;DHT22;11070;51.336;12.340;2023-06-10T12:37:35;33.00;53.60
2062;DHT22;11070;51.336;12.340;2023-06-10T12:40:03;33.30;52.50
2062;DHT22;11070;51.336;12.340;2023-06-10T12:42:30;33.10;52.70
2062;DHT22;11070;51.336;12.340;2023-06-10T12:44:56;32.70;52.80
2062;DHT22;11070;51.336;12.340;2023-06-10T12:47:37;32.10;53.20
2062;DHT22;11070;51.336;12.340;2023-06-10T12:50:05;32.00;54.30
2062;DHT22;11070;51.336;12.340;2023-06-10T12:52:31;32.30;54.70
2062;DHT22;11070;51.336;12.340;2023-06-10T12:54:58;32.30;54.10
2062;DHT22;11070;51.336;12.340;2023-06-10T12:57:24;32.20;54.20
2062;DHT22;11070;51.336;12.340;2023-06-10T12:59:49;31.80;52.70
2062;DHT22;11070;51.336;12.340;2023-06-10T13:02:18;31.00;50.80
2062;DHT22;11070;51.336;12.340;2023-06-10T13:04:46;30.20;48.80
2062;DHT22;11070;51.336;12.340;2023-06-10T13:07:12;29.90;49.70
2062;DHT22;11070;51.336;12.340;2023-06-10T13:09:37;29.80;50.20
2062;DHT22;11070;51.336;12.340;2023-06-10T13:12:03;29.80;51.90
2062;DHT22;11070;51.336;12.340;2023-06-10T13:14:30;29.80;54.10
2062;DHT22;11070;51.336;12.340;2023-06-10T13:16:55;29.50;59.20
2062;DHT22;11070;51.336;12.340;2023-06-10T13:19:21;29.00;62.90
2062;DHT22;11070;51.336;12.340;2023-06-10T13:21:48;28.70;62.60
2062;DHT22;11070;51.336;12.340;2023-06-10T13:24:13;28.30;65.60
2062;DHT22;11070;51.336;12.340;2023-06-10T13:26:39;28.10;66.40
2062;DHT22;11070;51.336;12.340;2023-06-10T13:29:05;28.00;67.70
2062;DHT22;11070;51.336;12.340;2023-06-10T13:31:33;27.90;65.80
2062;DHT22;11070;51.336;12.340;2023-06-10T13:33:59;27.40;64.00
2062;DHT22;11070;51.336;12.340;2023-06-10T13:36:25;26.90;63.70
2062;DHT22;11070;51.336;12.340;2023-06-10T13:38:51;26.50;62.60
2062;DHT22;11070;51.336;12.340;2023-06-10T13:41:16;26.30;61.70
2062;DHT22;11070;51.336;12.340;2023-06-10T13:43:42;26.10;62.00
2062;DHT22;11070;51.336;12.340;2023-06-10T13:46:08;25.90;61.00
2062;DHT22;11070;51.336;12.340;2023-06-10T13:48:34;25.80;61.20
2062;DHT22;11070;51.336;12.340;2023-06-10T13:51:00;25.80;61.30
2062;DHT22;11070;51.336;12.340;2023-06-10T13:53:26;25.80;61.50
2062;DHT22;11070;51.336;12.340;2023-06-10T13:55:52;25.90;61.40
2062;DHT22;11070;51.336;12.340;2023-06-10T13:58:18;25.90;60.20
2062;DHT22;11070;51.336;12.340;2023-06-10T14:00:44;26.00;59.20
2062;DHT22;11070;51.336;12.340;2023-06-10T14:03:10;26.10;59.60
2062;DHT22;11070;51.336;12.340;2023-06-10T14:05:35;26.50;58.00
2062;DHT22;11070;51.336;12.340;2023-06-10T14:08:01;26.90;57.20
2062;DHT22;11070;51.336;12.340;2023-06-10T14:10:26;27.10;56.70
2062;DHT22;11070;51.336;12.340;2023-06-10T14:12:52;27.30;56.60
2062;DHT22;11070;51.336;12.340;2023-06-10T14:15:19;27.40;56.40
2062;DHT22;11070;51.336;12.340;2023-06-10T14:17:44;27.60;55.40
2062;DHT22;11070;51.336;12.340;2023-06-10T14:20:11;28.00;54.90
2062;DHT22;11070;51.336;12.340;2023-06-10T14:22:36;28.60;53.80
2062;DHT22;11070;51.336;12.340;2023-06-10T14:25:02;29.20;52.00
2062;DHT22;11070;51.336;12.340;2023-06-10T14:27:28;29.30;50.30
2062;DHT22;11070;51.336;12.340;2023-06-10T14:29:54;29.30;51.00
2062;DHT22;11070;51.336;12.340;2023-06-10T14:32:20;29.20;50.10
2062;DHT22;11070;51.336;12.340;2023-06-10T14:34:45;29.00;51.00
2062;DHT22;11070;51.336;12.340;2023-06-10T14:37:12;28.90;51.80
2062;DHT22;11070;51.336;12.340;2023-06-10T14:39:38;28.80;51.30
2062;DHT22;11070;51.336;12.340;2023-06-10T14:42:04;28.70;51.40
2062;DHT22;11070;51.336;12.340;2023-06-10T14:44:30;28.80;50.60
2062;DHT22;11070;51.336;12.340;2023-06-10T14:46:56;28.90;50.70
2062;DHT22;11070;51.336;12.340;2023-06-10T14:49:22;28.90;50.20
2062;DHT22;11070;51.336;12.340;2023-06-10T14:51:48;29.10;48.80
2062;DHT22;11070;51.336;12.340;2023-06-10T14:54:15;29.30;48.20
2062;DHT22;11070;51.336;12.340;2023-06-10T14:56:41;29.30;50.20
2062;DHT22;11070;51.336;12.340;2023-06-10T14:59:07;28.90;55.50
2062;DHT22;11070;51.336;12.340;2023-06-10T15:01:32;28.60;57.80
2062;DHT22;11070;51.336;12.340;2023-06-10T15:03:58;28.40;59.60
2062;DHT22;11070;51.336;12.340;2023-06-10T15:06:23;27.80;62.30
2062;DHT22;11070;51.336;12.340;2023-06-10T15:08:49;27.30;65.00
2062;DHT22;11070;51.336;12.340;2023-06-10T15:11:15;27.20;66.70
2062;DHT22;11070;51.336;12.340;2023-06-10T15:13:41;27.30;67.50
2062;DHT22;11070;51.336;12.340;2023-06-10T15:16:07;27.10;69.10
2062;DHT22;11070;51.336;12.340;2023-06-10T15:18:33;27.00;70.80
2062;DHT22;11070;51.336;12.340;2023-06-10T15:20:58;26.90;72.40
2062;DHT22;11070;51.336;12.340;2023-06-10T15:23:24;26.90;73.40
2062;DHT22;11070;51.336;12.340;2023-06-10T15:25:50;26.80;74.50
2062;DHT22;11070;51.336;12.340;2023-06-10T15:28:16;26.70;74.60
2062;DHT22;11070;51.336;12.340;2023-06-10T15:30:41;26.80;75.70
2062;DHT22;11070;51.336;12.340;2023-06-10T15:33:07;26.80;76.40
2062;DHT22;11070;51.336;12.340;2023-06-10T15:35:33;26.90;77.20
2062;DHT22;11070;51.336;12.340;2023-06-10T15:37:59;27.10;77.00
2062;DHT22;11070;51.336;12.340;2023-06-10T15:40:25;27.30;76.50
2062;DHT22;11070;51.336;12.340;2023-06-10T15:42:51;27.30;75.90
2062;DHT22;11070;51.336;12.340;2023-06-10T15:45:17;27.30;75.90
2062;DHT22;11070;51.336;12.340;2023-06-10T15:47:43;27.50;74.80
2062;DHT22;11070;51.336;12.340;2023-06-10T15:50:09;27.50;74.20